BKP124 VTSM-VTBS
Flight info
| Callsign | BKP124 |
|---|---|
| Flight time | N/A |
| Altitude | 34000 |
| Route | OLBAG1A OLBAG Y17 DONSI M769 LEBIM LEBIM1C |
| Aircraft | A319/M-SDE3FGHIRWY/LB1 |
Departure
| Time | 2026-04-24 16:41 |
|---|---|
| Airport | Samui International Airport (VTSM) |
Arrival
| Time | N/A |
|---|---|
| Airport | Suvarnabhumi Airport (VTBS) |
| Time | Latitude | Longitude | Altitude | Speed | Heading |
|---|---|---|---|---|---|
| 2026-04-24 15:51 | 9.55122 | 100.06341 | 50 ft | 0 kts | 84° |
| 2026-04-24 16:30 | 9.55122 | 100.06332 | 51 ft | 4 kts | 80° |
| 2026-04-24 16:30 | 9.55117 | 100.06316 | 50 ft | 4 kts | 56° |
| 2026-04-24 16:31 | 9.55099 | 100.06302 | 50 ft | 3 kts | 359° |
| 2026-04-24 16:31 | 9.55094 | 100.06302 | 51 ft | 0 kts | 354° |
| 2026-04-24 16:34 | 9.55095 | 100.06302 | 51 ft | 0 kts | 354° |
| 2026-04-24 16:34 | 9.55113 | 100.06300 | 50 ft | 4 kts | 354° |
| 2026-04-24 16:34 | 9.55152 | 100.06296 | 53 ft | 6 kts | 354° |
| 2026-04-24 16:35 | 9.55201 | 100.06291 | 53 ft | 8 kts | 354° |
| 2026-04-24 16:35 | 9.55259 | 100.06286 | 53 ft | 9 kts | 354° |
| 2026-04-24 16:35 | 9.55282 | 100.06280 | 53 ft | 0 kts | 331° |
| 2026-04-24 16:37 | 9.55284 | 100.06280 | 53 ft | 1 kts | 331° |
| 2026-04-24 16:38 | 9.55294 | 100.06271 | 53 ft | 3 kts | 313° |
| 2026-04-24 16:38 | 9.55297 | 100.06239 | 53 ft | 6 kts | 263° |
| 2026-04-24 16:38 | 9.55308 | 100.06198 | 53 ft | 6 kts | 323° |
| 2026-04-24 16:38 | 9.55362 | 100.06190 | 53 ft | 10 kts | 354° |
| 2026-04-24 16:39 | 9.55442 | 100.06181 | 53 ft | 14 kts | 354° |
| 2026-04-24 16:39 | 9.55553 | 100.06171 | 53 ft | 16 kts | 354° |
| 2026-04-24 16:39 | 9.55647 | 100.06184 | 53 ft | 14 kts | 11° |
| 2026-04-24 16:39 | 9.55705 | 100.06162 | 53 ft | 7 kts | 270° |
| 2026-04-24 16:40 | 9.55666 | 100.06160 | 51 ft | 7 kts | 168° |
| 2026-04-24 16:40 | 9.55572 | 100.06170 | 50 ft | 34 kts | 173° |
| 2026-04-24 16:40 | 9.55119 | 100.06214 | 53 ft | 96 kts | 174° |
| 2026-04-24 16:40 | 9.54249 | 100.06302 | 84 ft | 149 kts | 173° |
| 2026-04-24 16:41 | 9.53251 | 100.06427 | 718 ft | 146 kts | 165° |
| 2026-04-24 16:41 | 9.52297 | 100.06792 | 1322 ft | 145 kts | 154° |
| 2026-04-24 16:41 | 9.51366 | 100.07184 | 1902 ft | 146 kts | 155° |
| 2026-04-24 16:41 | 9.50366 | 100.07598 | 2136 ft | 165 kts | 155° |
| 2026-04-24 16:42 | 9.49229 | 100.08066 | 2338 ft | 187 kts | 156° |
| 2026-04-24 16:42 | 9.47963 | 100.08583 | 2649 ft | 202 kts | 156° |
| 2026-04-24 16:42 | 9.46764 | 100.09361 | 3016 ft | 212 kts | 128° |
| 2026-04-24 16:42 | 9.46237 | 100.10754 | 3414 ft | 222 kts | 93° |
| 2026-04-24 16:43 | 9.46228 | 100.12327 | 4057 ft | 224 kts | 89° |
| 2026-04-24 16:43 | 9.46237 | 100.13919 | 4695 ft | 228 kts | 89° |
| 2026-04-24 16:43 | 9.46253 | 100.15539 | 5309 ft | 231 kts | 85° |
| 2026-04-24 16:43 | 9.46738 | 100.17081 | 5916 ft | 232 kts | 54° |
| 2026-04-24 16:44 | 9.47930 | 100.18142 | 6521 ft | 234 kts | 24° |
| 2026-04-24 16:44 | 9.49511 | 100.18539 | 7140 ft | 236 kts | 9° |
| 2026-04-24 16:44 | 9.51139 | 100.18795 | 7773 ft | 238 kts | 10° |
| 2026-04-24 16:44 | 9.52786 | 100.19056 | 8372 ft | 241 kts | 11° |
| 2026-04-24 16:45 | 9.54459 | 100.19324 | 8970 ft | 245 kts | 10° |
| 2026-04-24 16:45 | 9.56190 | 100.19388 | 9475 ft | 256 kts | 1° |
| 2026-04-24 16:45 | 9.58044 | 100.19353 | 9753 ft | 275 kts | 1° |
| 2026-04-24 16:45 | 9.60033 | 100.19317 | 10028 ft | 295 kts | 0° |
| 2026-04-24 16:46 | 9.62173 | 100.19278 | 10207 ft | 318 kts | 0° |
| 2026-04-24 16:46 | 9.64467 | 100.19234 | 10351 ft | 339 kts | 0° |
| 2026-04-24 16:46 | 9.66828 | 100.19188 | 10769 ft | 348 kts | 1° |
| 2026-04-24 16:46 | 9.69268 | 100.19141 | 11327 ft | 352 kts | 1° |
| 2026-04-24 16:47 | 9.71732 | 100.19111 | 11899 ft | 354 kts | 4° |
| 2026-04-24 16:47 | 9.74159 | 100.19513 | 12459 ft | 355 kts | 19° |
| 2026-04-24 16:47 | 9.76429 | 100.20504 | 13027 ft | 355 kts | 29° |
| 2026-04-24 16:47 | 9.78662 | 100.21638 | 13598 ft | 358 kts | 28° |
| 2026-04-24 16:48 | 9.80868 | 100.22761 | 14082 ft | 361 kts | 28° |
| 2026-04-24 16:48 | 9.83133 | 100.23912 | 14563 ft | 364 kts | 29° |
| 2026-04-24 16:48 | 9.85418 | 100.25071 | 15031 ft | 368 kts | 28° |
| 2026-04-24 16:48 | 9.87726 | 100.26240 | 15499 ft | 371 kts | 28° |
| 2026-04-24 16:49 | 9.90048 | 100.27414 | 15960 ft | 375 kts | 28° |
| 2026-04-24 16:49 | 9.92393 | 100.28599 | 16422 ft | 378 kts | 27° |
| 2026-04-24 16:49 | 9.94729 | 100.29779 | 16876 ft | 381 kts | 28° |
| 2026-04-24 16:49 | 9.97121 | 100.30989 | 17329 ft | 385 kts | 28° |
| 2026-04-24 16:50 | 9.98719 | 100.31807 | 17625 ft | 387 kts | 28° |
| 2026-04-24 16:50 | 10.01878 | 100.33558 | 18205 ft | 392 kts | 31° |
| 2026-04-24 16:50 | 10.04254 | 100.34958 | 18598 ft | 395 kts | 31° |
| 2026-04-24 16:50 | 10.06632 | 100.36389 | 19050 ft | 396 kts | 31° |
| 2026-04-24 16:51 | 10.09006 | 100.37820 | 19479 ft | 398 kts | 31° |
| 2026-04-24 16:51 | 10.11449 | 100.39078 | 19884 ft | 401 kts | 22° |
| 2026-04-24 16:51 | 10.14148 | 100.39878 | 20292 ft | 405 kts | 11° |
| 2026-04-24 16:51 | 10.16959 | 100.40147 | 20699 ft | 408 kts | 1° |
| 2026-04-24 16:52 | 10.19807 | 100.40197 | 21112 ft | 410 kts | 1° |
| 2026-04-24 16:52 | 10.22677 | 100.40259 | 21514 ft | 413 kts | 2° |
| 2026-04-24 16:52 | 10.25561 | 100.40326 | 21895 ft | 416 kts | 1° |
| 2026-04-24 16:52 | 10.28425 | 100.40396 | 22280 ft | 418 kts | 2° |
| 2026-04-24 16:53 | 10.31338 | 100.40472 | 22661 ft | 420 kts | 2° |
| 2026-04-24 16:53 | 10.34265 | 100.40549 | 23016 ft | 422 kts | 2° |
| 2026-04-24 16:53 | 10.37221 | 100.40625 | 23377 ft | 425 kts | 2° |
| 2026-04-24 16:53 | 10.40184 | 100.40699 | 23695 ft | 426 kts | 2° |
| 2026-04-24 16:54 | 10.43162 | 100.40772 | 24012 ft | 428 kts | 2° |
| 2026-04-24 16:54 | 10.46156 | 100.40840 | 24329 ft | 429 kts | 2° |
| 2026-04-24 16:54 | 10.49114 | 100.40908 | 24633 ft | 430 kts | 2° |
| 2026-04-24 16:54 | 10.52119 | 100.40980 | 24946 ft | 432 kts | 2° |
| 2026-04-24 16:55 | 10.55131 | 100.41053 | 25256 ft | 433 kts | 3° |
| 2026-04-24 16:55 | 10.58149 | 100.41130 | 25555 ft | 434 kts | 2° |
| 2026-04-24 16:55 | 10.61175 | 100.41206 | 25850 ft | 436 kts | 3° |
| 2026-04-24 16:55 | 10.64225 | 100.41280 | 26144 ft | 437 kts | 2° |
| 2026-04-24 16:56 | 10.67278 | 100.41353 | 26436 ft | 439 kts | 3° |
| 2026-04-24 16:56 | 10.70340 | 100.41427 | 26717 ft | 441 kts | 2° |
| 2026-04-24 16:56 | 10.73413 | 100.41501 | 27005 ft | 442 kts | 3° |
| 2026-04-24 16:56 | 10.76456 | 100.41576 | 27286 ft | 444 kts | 2° |
| 2026-04-24 16:57 | 10.79552 | 100.41652 | 27531 ft | 446 kts | 2° |
| 2026-04-24 16:57 | 10.82658 | 100.41727 | 27788 ft | 448 kts | 2° |
| 2026-04-24 16:57 | 10.85778 | 100.41801 | 28053 ft | 450 kts | 2° |
| 2026-04-24 16:57 | 10.88918 | 100.41875 | 28321 ft | 451 kts | 2° |
| 2026-04-24 16:58 | 10.92074 | 100.41950 | 28582 ft | 453 kts | 2° |
| 2026-04-24 16:58 | 10.95232 | 100.42027 | 28843 ft | 455 kts | 2° |
| 2026-04-24 16:58 | 10.98372 | 100.42104 | 29100 ft | 456 kts | 2° |
| 2026-04-24 16:58 | 11.01554 | 100.42182 | 29350 ft | 458 kts | 2° |
| 2026-04-24 16:59 | 11.04753 | 100.42257 | 29599 ft | 460 kts | 2° |
| 2026-04-24 16:59 | 11.07966 | 100.42331 | 29845 ft | 461 kts | 2° |
| 2026-04-24 16:59 | 11.14421 | 100.42487 | 30263 ft | 465 kts | 2° |
| 2026-04-24 17:00 | 11.17658 | 100.42567 | 30450 ft | 467 kts | 2° |
| 2026-04-24 17:00 | 11.24139 | 100.42728 | 30837 ft | 470 kts | 2° |
| 2026-04-24 17:00 | 11.27420 | 100.42809 | 31039 ft | 471 kts | 2° |
| 2026-04-24 17:01 | 11.33961 | 100.42969 | 31614 ft | 469 kts | 3° |
| 2026-04-24 17:01 | 11.37239 | 100.43050 | 31896 ft | 468 kts | 2° |
| 2026-04-24 17:02 | 11.43721 | 100.43205 | 32484 ft | 467 kts | 2° |
| 2026-04-24 17:02 | 11.46970 | 100.43281 | 32783 ft | 466 kts | 3° |
| 2026-04-24 17:02 | 11.50221 | 100.43360 | 33098 ft | 466 kts | 2° |
| 2026-04-24 17:02 | 11.53463 | 100.43439 | 33415 ft | 465 kts | 2° |
| 2026-04-24 17:03 | 11.59935 | 100.43601 | 33869 ft | 463 kts | 2° |
| 2026-04-24 17:03 | 11.63110 | 100.43680 | 33894 ft | 458 kts | 2° |
| 2026-04-24 17:04 | 11.69481 | 100.43838 | 33893 ft | 456 kts | 2° |
| 2026-04-24 17:04 | 11.78998 | 100.44076 | 33893 ft | 455 kts | 3° |
| 2026-04-24 17:05 | 11.85301 | 100.44232 | 33887 ft | 455 kts | 2° |
| 2026-04-24 17:06 | 11.94781 | 100.44473 | 33878 ft | 455 kts | 2° |
| 2026-04-24 17:06 | 12.01186 | 100.44630 | 33375 ft | 460 kts | 2° |
| 2026-04-24 17:06 | 12.04378 | 100.44707 | 33121 ft | 459 kts | 2° |
| 2026-04-24 17:07 | 12.06488 | 100.44760 | 32957 ft | 457 kts | 2° |
| 2026-04-24 17:07 | 12.10734 | 100.44869 | 32628 ft | 455 kts | 2° |
| 2026-04-24 17:07 | 12.17047 | 100.45030 | 32131 ft | 451 kts | 2° |
| 2026-04-24 17:08 | 12.23266 | 100.45191 | 31654 ft | 445 kts | 2° |
| 2026-04-24 17:08 | 12.26353 | 100.45269 | 31415 ft | 442 kts | 2° |
| 2026-04-24 17:08 | 12.29421 | 100.45344 | 31151 ft | 439 kts | 2° |
| 2026-04-24 17:09 | 12.35489 | 100.45490 | 30151 ft | 434 kts | 2° |
| 2026-04-24 17:09 | 12.41503 | 100.45644 | 29074 ft | 428 kts | 2° |
| 2026-04-24 17:10 | 12.44475 | 100.45724 | 28568 ft | 425 kts | 2° |
| 2026-04-24 17:10 | 12.53235 | 100.45940 | 27104 ft | 415 kts | 2° |
| 2026-04-24 17:11 | 12.61776 | 100.46151 | 25726 ft | 406 kts | 2° |
| 2026-04-24 17:12 | 12.75728 | 100.46517 | 23583 ft | 398 kts | 2° |